Crescent, Missouri
Current Conditions -  °F | °C
As of 6:54 AM on Sunday 23 Nov 2014 (Local Time) from KSUS Reporting Station
Overcast Overcast  
Wind Chill: 55°   Ceiling: 1900
Heat Index: 55°   Visibility: 10mi
Dew Point: 48°   Wind: 6mph
Humidity: 77%   Direction: 150°SSE
Pressure: 29.71"   Gusts: NA
Location:  38.5081°N, 90.6523°W
Report Text: KSUS 231254Z 15005KT 10SM OVC019 13/09 A2971 RMK AO2 SLP060 T01280089
Loading
Personal Weather Stations






























Interactive Weather Map New forecast layout! Learn more

10-Day Weather Forecast

Advertisements
Track Severe Weather on mobile